sensor_id;sensor_type;location;lat;lon;timestamp;P1;durP1;ratioP1;P2;durP2;ratioP2
30000;SDS011;16845;48.670;9.000;2023-09-18T00:00:50;6.07;;;3.83;;
30000;SDS011;16845;48.670;9.000;2023-09-18T00:03:18;4.57;;;3.28;;
30000;SDS011;16845;48.670;9.000;2023-09-18T00:05:46;5.95;;;3.63;;
30000;SDS011;16845;48.670;9.000;2023-09-18T00:08:12;4.57;;;3.53;;
30000;SDS011;16845;48.670;9.000;2023-09-18T00:10:39;4.90;;;3.73;;
30000;SDS011;16845;48.670;9.000;2023-09-18T00:13:05;7.73;;;4.17;;
30000;SDS011;16845;48.670;9.000;2023-09-18T00:15:32;6.97;;;3.95;;
30000;SDS011;16845;48.670;9.000;2023-09-18T00:17:59;5.40;;;3.67;;
30000;SDS011;16845;48.670;9.000;2023-09-18T00:20:27;5.43;;;3.77;;
30000;SDS011;16845;48.670;9.000;2023-09-18T00:22:53;5.22;;;3.08;;
30000;SDS011;16845;48.670;9.000;2023-09-18T00:25:20;5.43;;;3.90;;
30000;SDS011;16845;48.670;9.000;2023-09-18T00:27:46;5.22;;;3.95;;
30000;SDS011;16845;48.670;9.000;2023-09-18T00:30:13;5.65;;;3.75;;
30000;SDS011;16845;48.670;9.000;2023-09-18T00:32:39;3.83;;;3.27;;
30000;SDS011;16845;48.670;9.000;2023-09-18T00:35:06;4.65;;;3.70;;
30000;SDS011;16845;48.670;9.000;2023-09-18T00:37:35;4.75;;;3.67;;
30000;SDS011;16845;48.670;9.000;2023-09-18T00:40:01;4.82;;;3.22;;
30000;SDS011;16845;48.670;9.000;2023-09-18T00:42:28;3.90;;;3.33;;
30000;SDS011;16845;48.670;9.000;2023-09-18T00:44:54;4.43;;;3.83;;
30000;SDS011;16845;48.670;9.000;2023-09-18T00:47:20;4.03;;;3.33;;
30000;SDS011;16845;48.670;9.000;2023-09-18T00:49:48;5.73;;;3.57;;
30000;SDS011;16845;48.670;9.000;2023-09-18T00:52:16;4.22;;;3.25;;
30000;SDS011;16845;48.670;9.000;2023-09-18T00:54:44;6.00;;;4.05;;
30000;SDS011;16845;48.670;9.000;2023-09-18T00:57:13;9.18;;;3.70;;
30000;SDS011;16845;48.670;9.000;2023-09-18T00:59:40;4.00;;;3.30;;
30000;SDS011;16845;48.670;9.000;2023-09-18T01:02:06;5.70;;;3.03;;
30000;SDS011;16845;48.670;9.000;2023-09-18T01:04:33;9.38;;;3.15;;
30000;SDS011;16845;48.670;9.000;2023-09-18T01:07:00;7.85;;;3.72;;
30000;SDS011;16845;48.670;9.000;2023-09-18T01:09:27;7.97;;;3.10;;
30000;SDS011;16845;48.670;9.000;2023-09-18T01:11:58;4.18;;;3.20;;
30000;SDS011;16845;48.670;9.000;2023-09-18T01:14:31;4.70;;;3.10;;
30000;SDS011;16845;48.670;9.000;2023-09-18T01:17:09;6.75;;;3.10;;
30000;SDS011;16845;48.670;9.000;2023-09-18T01:19:37;5.80;;;3.45;;
30000;SDS011;16845;48.670;9.000;2023-09-18T01:24:32;5.53;;;2.85;;
30000;SDS011;16845;48.670;9.000;2023-09-18T01:26:59;4.70;;;2.65;;
30000;SDS011;16845;48.670;9.000;2023-09-18T01:29:25;5.67;;;2.90;;
30000;SDS011;16845;48.670;9.000;2023-09-18T01:31:52;3.90;;;3.03;;
30000;SDS011;16845;48.670;9.000;2023-09-18T01:36:47;8.30;;;3.30;;
30000;SDS011;16845;48.670;9.000;2023-09-18T01:39:16;4.15;;;2.70;;
30000;SDS011;16845;48.670;9.000;2023-09-18T01:41:44;5.65;;;2.92;;
30000;SDS011;16845;48.670;9.000;2023-09-18T01:44:11;8.05;;;2.83;;
30000;SDS011;16845;48.670;9.000;2023-09-18T01:46:38;9.32;;;4.28;;
30000;SDS011;16845;48.670;9.000;2023-09-18T01:51:32;15.98;;;3.53;;
30000;SDS011;16845;48.670;9.000;2023-09-18T01:53:58;13.02;;;3.67;;
30000;SDS011;16845;48.670;9.000;2023-09-18T01:56:25;20.77;;;4.40;;
30000;SDS011;16845;48.670;9.000;2023-09-18T01:58:53;12.57;;;4.38;;
30000;SDS011;16845;48.670;9.000;2023-09-18T02:01:20;9.68;;;3.85;;
30000;SDS011;16845;48.670;9.000;2023-09-18T02:03:47;13.70;;;3.70;;
30000;SDS011;16845;48.670;9.000;2023-09-18T02:06:33;14.80;;;5.25;;
30000;SDS011;16845;48.670;9.000;2023-09-18T02:09:00;10.75;;;3.70;;
30000;SDS011;16845;48.670;9.000;2023-09-18T02:11:27;7.07;;;3.40;;
30000;SDS011;16845;48.670;9.000;2023-09-18T02:13:55;12.25;;;3.13;;
30000;SDS011;16845;48.670;9.000;2023-09-18T02:16:22;14.95;;;3.70;;
30000;SDS011;16845;48.670;9.000;2023-09-18T02:18:48;21.83;;;3.42;;
30000;SDS011;16845;48.670;9.000;2023-09-18T02:21:18;13.65;;;4.95;;
30000;SDS011;16845;48.670;9.000;2023-09-18T02:23:45;12.27;;;3.47;;
30000;SDS011;16845;48.670;9.000;2023-09-18T02:26:11;11.27;;;4.13;;
30000;SDS011;16845;48.670;9.000;2023-09-18T02:28:38;18.52;;;3.53;;
30000;SDS011;16845;48.670;9.000;2023-09-18T02:31:06;13.95;;;3.80;;
30000;SDS011;16845;48.670;9.000;2023-09-18T02:33:32;15.18;;;4.07;;
30000;SDS011;16845;48.670;9.000;2023-09-18T02:35:59;14.77;;;3.75;;
30000;SDS011;16845;48.670;9.000;2023-09-18T02:38:25;15.60;;;3.67;;
30000;SDS011;16845;48.670;9.000;2023-09-18T02:40:52;18.73;;;3.92;;
30000;SDS011;16845;48.670;9.000;2023-09-18T02:43:18;13.65;;;3.88;;
30000;SDS011;16845;48.670;9.000;2023-09-18T02:45:45;22.02;;;5.13;;
30000;SDS011;16845;48.670;9.000;2023-09-18T02:48:13;12.40;;;3.42;;
30000;SDS011;16845;48.670;9.000;2023-09-18T02:50:39;7.15;;;3.08;;
30000;SDS011;16845;48.670;9.000;2023-09-18T02:53:06;16.23;;;3.70;;
30000;SDS011;16845;48.670;9.000;2023-09-18T02:55:37;14.13;;;3.53;;
30000;SDS011;16845;48.670;9.000;2023-09-18T02:58:04;6.80;;;3.13;;
30000;SDS011;16845;48.670;9.000;2023-09-18T03:00:30;12.73;;;3.22;;
30000;SDS011;16845;48.670;9.000;2023-09-18T03:03:09;16.60;;;4.22;;
30000;SDS011;16845;48.670;9.000;2023-09-18T03:05:37;19.73;;;3.60;;
30000;SDS011;16845;48.670;9.000;2023-09-18T03:08:05;13.48;;;3.80;;
30000;SDS011;16845;48.670;9.000;2023-09-18T03:10:32;15.23;;;3.92;;
30000;SDS011;16845;48.670;9.000;2023-09-18T03:15:25;16.95;;;3.53;;
30000;SDS011;16845;48.670;9.000;2023-09-18T03:17:52;18.75;;;3.38;;
30000;SDS011;16845;48.670;9.000;2023-09-18T03:20:21;14.73;;;2.72;;
30000;SDS011;16845;48.670;9.000;2023-09-18T03:22:50;14.07;;;4.13;;
30000;SDS011;16845;48.670;9.000;2023-09-18T03:25:17;13.48;;;3.25;;
30000;SDS011;16845;48.670;9.000;2023-09-18T03:27:43;10.60;;;3.50;;
30000;SDS011;16845;48.670;9.000;2023-09-18T03:30:10;15.50;;;3.50;;
30000;SDS011;16845;48.670;9.000;2023-09-18T03:32:36;16.80;;;3.00;;
30000;SDS011;16845;48.670;9.000;2023-09-18T03:35:03;13.77;;;3.70;;
30000;SDS011;16845;48.670;9.000;2023-09-18T03:39:58;16.08;;;3.45;;
30000;SDS011;16845;48.670;9.000;2023-09-18T03:42:25;17.58;;;3.13;;
30000;SDS011;16845;48.670;9.000;2023-09-18T03:44:52;10.98;;;3.78;;
30000;SDS011;16845;48.670;9.000;2023-09-18T03:47:18;16.03;;;3.80;;
30000;SDS011;16845;48.670;9.000;2023-09-18T03:49:45;16.67;;;4.00;;
30000;SDS011;16845;48.670;9.000;2023-09-18T03:52:11;14.40;;;3.50;;
30000;SDS011;16845;48.670;9.000;2023-09-18T03:54:38;18.35;;;4.03;;
30000;SDS011;16845;48.670;9.000;2023-09-18T03:57:06;13.60;;;3.22;;
30000;SDS011;16845;48.670;9.000;2023-09-18T03:59:32;16.92;;;4.22;;
30000;SDS011;16845;48.670;9.000;2023-09-18T04:01:59;13.93;;;3.40;;
30000;SDS011;16845;48.670;9.000;2023-09-18T04:04:25;13.70;;;3.38;;
30000;SDS011;16845;48.670;9.000;2023-09-18T04:06:53;17.97;;;4.60;;
30000;SDS011;16845;48.670;9.000;2023-09-18T04:11:46;10.57;;;3.42;;
30000;SDS011;16845;48.670;9.000;2023-09-18T04:14:14;17.13;;;4.27;;
30000;SDS011;16845;48.670;9.000;2023-09-18T04:16:40;14.65;;;3.20;;
30000;SDS011;16845;48.670;9.000;2023-09-18T04:19:07;10.30;;;2.70;;
30000;SDS011;16845;48.670;9.000;2023-09-18T04:21:33;12.77;;;2.92;;
30000;SDS011;16845;48.670;9.000;2023-09-18T04:24:00;7.10;;;2.80;;
30000;SDS011;16845;48.670;9.000;2023-09-18T04:26:27;14.05;;;3.78;;
30000;SDS011;16845;48.670;9.000;2023-09-18T04:28:54;10.75;;;3.25;;
30000;SDS011;16845;48.670;9.000;2023-09-18T04:31:22;12.63;;;3.40;;
30000;SDS011;16845;48.670;9.000;2023-09-18T04:33:48;7.57;;;2.80;;
30000;SDS011;16845;48.670;9.000;2023-09-18T04:36:15;6.72;;;2.30;;
30000;SDS011;16845;48.670;9.000;2023-09-18T04:38:41;4.50;;;2.40;;
30000;SDS011;16845;48.670;9.000;2023-09-18T04:41:08;10.48;;;2.78;;
30000;SDS011;16845;48.670;9.000;2023-09-18T04:43:34;9.95;;;2.53;;
30000;SDS011;16845;48.670;9.000;2023-09-18T04:46:02;6.50;;;2.35;;
30000;SDS011;16845;48.670;9.000;2023-09-18T04:48:34;11.05;;;2.53;;
30000;SDS011;16845;48.670;9.000;2023-09-18T04:51:02;12.57;;;3.00;;
30000;SDS011;16845;48.670;9.000;2023-09-18T04:53:29;10.00;;;2.67;;
30000;SDS011;16845;48.670;9.000;2023-09-18T04:55:56;7.53;;;3.38;;
30000;SDS011;16845;48.670;9.000;2023-09-18T04:58:23;7.07;;;2.77;;
30000;SDS011;16845;48.670;9.000;2023-09-18T05:00:53;7.30;;;2.10;;
30000;SDS011;16845;48.670;9.000;2023-09-18T05:03:20;8.90;;;2.55;;
30000;SDS011;16845;48.670;9.000;2023-09-18T05:05:48;8.75;;;2.38;;
30000;SDS011;16845;48.670;9.000;2023-09-18T05:08:15;4.57;;;2.08;;
30000;SDS011;16845;48.670;9.000;2023-09-18T05:10:41;5.93;;;2.37;;
30000;SDS011;16845;48.670;9.000;2023-09-18T05:13:08;12.37;;;2.93;;
30000;SDS011;16845;48.670;9.000;2023-09-18T05:15:34;8.80;;;2.28;;
30000;SDS011;16845;48.670;9.000;2023-09-18T05:18:01;8.90;;;2.73;;
30000;SDS011;16845;48.670;9.000;2023-09-18T05:20:28;7.45;;;2.35;;
30000;SDS011;16845;48.670;9.000;2023-09-18T05:22:56;7.65;;;2.40;;
30000;SDS011;16845;48.670;9.000;2023-09-18T05:25:24;11.32;;;2.55;;
30000;SDS011;16845;48.670;9.000;2023-09-18T05:27:52;4.93;;;2.20;;
30000;SDS011;16845;48.670;9.000;2023-09-18T05:30:22;7.75;;;2.67;;
30000;SDS011;16845;48.670;9.000;2023-09-18T05:32:50;7.03;;;2.25;;
30000;SDS011;16845;48.670;9.000;2023-09-18T05:35:17;7.07;;;2.70;;
30000;SDS011;16845;48.670;9.000;2023-09-18T05:37:43;5.35;;;2.38;;
30000;SDS011;16845;48.670;9.000;2023-09-18T05:40:12;7.50;;;2.47;;
30000;SDS011;16845;48.670;9.000;2023-09-18T05:42:40;7.57;;;2.20;;
30000;SDS011;16845;48.670;9.000;2023-09-18T05:45:08;5.43;;;2.33;;
30000;SDS011;16845;48.670;9.000;2023-09-18T05:50:01;7.10;;;2.20;;
30000;SDS011;16845;48.670;9.000;2023-09-18T05:52:28;6.40;;;2.30;;
30000;SDS011;16845;48.670;9.000;2023-09-18T05:54:54;8.10;;;3.05;;
30000;SDS011;16845;48.670;9.000;2023-09-18T05:57:22;8.68;;;3.10;;
30000;SDS011;16845;48.670;9.000;2023-09-18T05:59:49;9.98;;;2.65;;
30000;SDS011;16845;48.670;9.000;2023-09-18T06:02:15;11.93;;;3.28;;
30000;SDS011;16845;48.670;9.000;2023-09-18T06:04:42;10.20;;;3.70;;
30000;SDS011;16845;48.670;9.000;2023-09-18T06:07:09;12.00;;;2.90;;
30000;SDS011;16845;48.670;9.000;2023-09-18T06:09:35;9.30;;;2.58;;
30000;SDS011;16845;48.670;9.000;2023-09-18T06:12:02;5.03;;;2.28;;
30000;SDS011;16845;48.670;9.000;2023-09-18T06:14:30;9.50;;;2.92;;
30000;SDS011;16845;48.670;9.000;2023-09-18T06:16:56;9.88;;;2.30;;
30000;SDS011;16845;48.670;9.000;2023-09-18T06:19:23;14.87;;;3.90;;
30000;SDS011;16845;48.670;9.000;2023-09-18T06:21:49;9.32;;;3.17;;
30000;SDS011;16845;48.670;9.000;2023-09-18T06:24:16;13.77;;;3.03;;
30000;SDS011;16845;48.670;9.000;2023-09-18T06:26:42;12.52;;;2.78;;
30000;SDS011;16845;48.670;9.000;2023-09-18T06:29:09;6.22;;;2.05;;
30000;SDS011;16845;48.670;9.000;2023-09-18T06:31:36;5.93;;;2.40;;
30000;SDS011;16845;48.670;9.000;2023-09-18T06:34:03;12.60;;;2.38;;
30000;SDS011;16845;48.670;9.000;2023-09-18T06:36:29;11.45;;;2.67;;
30000;SDS011;16845;48.670;9.000;2023-09-18T06:38:56;8.80;;;2.67;;
30000;SDS011;16845;48.670;9.000;2023-09-18T06:41:22;11.75;;;3.13;;
30000;SDS011;16845;48.670;9.000;2023-09-18T06:43:49;8.27;;;2.80;;
30000;SDS011;16845;48.670;9.000;2023-09-18T06:46:15;11.70;;;2.67;;
30000;SDS011;16845;48.670;9.000;2023-09-18T06:48:43;8.20;;;2.30;;
30000;SDS011;16845;48.670;9.000;2023-09-18T06:51:10;7.50;;;3.15;;
30000;SDS011;16845;48.670;9.000;2023-09-18T06:53:36;7.40;;;2.15;;
30000;SDS011;16845;48.670;9.000;2023-09-18T06:56:03;9.32;;;2.28;;
30000;SDS011;16845;48.670;9.000;2023-09-18T06:58:29;9.60;;;2.77;;
30000;SDS011;16845;48.670;9.000;2023-09-18T07:00:56;8.30;;;2.42;;
30000;SDS011;16845;48.670;9.000;2023-09-18T07:03:22;3.40;;;1.90;;
30000;SDS011;16845;48.670;9.000;2023-09-18T07:05:50;7.88;;;2.22;;
30000;SDS011;16845;48.670;9.000;2023-09-18T07:08:17;8.77;;;2.95;;
30000;SDS011;16845;48.670;9.000;2023-09-18T07:10:43;7.93;;;2.50;;
30000;SDS011;16845;48.670;9.000;2023-09-18T07:13:10;8.00;;;2.60;;
30000;SDS011;16845;48.670;9.000;2023-09-18T07:15:37;7.95;;;2.25;;
30000;SDS011;16845;48.670;9.000;2023-09-18T07:18:03;5.30;;;1.93;;
30000;SDS011;16845;48.670;9.000;2023-09-18T07:20:30;9.10;;;1.77;;
30000;SDS011;16845;48.670;9.000;2023-09-18T07:22:58;7.65;;;1.70;;
30000;SDS011;16845;48.670;9.000;2023-09-18T07:25:24;7.05;;;1.63;;
30000;SDS011;16845;48.670;9.000;2023-09-18T07:27:51;5.70;;;1.48;;
30000;SDS011;16845;48.670;9.000;2023-09-18T07:30:17;8.75;;;2.05;;
30000;SDS011;16845;48.670;9.000;2023-09-18T07:32:44;4.45;;;1.90;;
30000;SDS011;16845;48.670;9.000;2023-09-18T07:35:11;10.75;;;1.98;;
30000;SDS011;16845;48.670;9.000;2023-09-18T07:37:38;5.60;;;1.60;;
30000;SDS011;16845;48.670;9.000;2023-09-18T07:40:06;8.00;;;2.00;;
30000;SDS011;16845;48.670;9.000;2023-09-18T07:42:33;6.50;;;2.03;;
30000;SDS011;16845;48.670;9.000;2023-09-18T07:45:00;8.02;;;1.85;;
30000;SDS011;16845;48.670;9.000;2023-09-18T07:47:26;6.25;;;2.30;;
30000;SDS011;16845;48.670;9.000;2023-09-18T07:49:53;5.50;;;1.67;;
30000;SDS011;16845;48.670;9.000;2023-09-18T07:52:20;3.83;;;1.42;;
30000;SDS011;16845;48.670;9.000;2023-09-18T07:54:46;5.47;;;1.90;;
30000;SDS011;16845;48.670;9.000;2023-09-18T07:57:15;2.28;;;1.20;;
30000;SDS011;16845;48.670;9.000;2023-09-18T07:59:42;5.78;;;1.50;;
30000;SDS011;16845;48.670;9.000;2023-09-18T08:02:08;4.40;;;1.80;;
30000;SDS011;16845;48.670;9.000;2023-09-18T08:04:35;5.00;;;1.73;;
30000;SDS011;16845;48.670;9.000;2023-09-18T08:07:01;3.20;;;1.17;;
30000;SDS011;16845;48.670;9.000;2023-09-18T08:09:28;9.60;;;1.77;;
30000;SDS011;16845;48.670;9.000;2023-09-18T08:11:54;4.57;;;1.42;;
30000;SDS011;16845;48.670;9.000;2023-09-18T08:14:23;5.20;;;1.55;;
30000;SDS011;16845;48.670;9.000;2023-09-18T08:16:55;4.28;;;1.42;;
30000;SDS011;16845;48.670;9.000;2023-09-18T08:19:22;10.30;;;1.40;;
30000;SDS011;16845;48.670;9.000;2023-09-18T08:21:49;6.60;;;1.77;;
30000;SDS011;16845;48.670;9.000;2023-09-18T08:24:15;3.57;;;1.50;;
30000;SDS011;16845;48.670;9.000;2023-09-18T08:26:42;5.47;;;1.30;;
30000;SDS011;16845;48.670;9.000;2023-09-18T08:29:08;6.30;;;1.57;;
30000;SDS011;16845;48.670;9.000;2023-09-18T08:31:36;4.60;;;1.40;;
30000;SDS011;16845;48.670;9.000;2023-09-18T08:34:03;5.65;;;1.77;;
30000;SDS011;16845;48.670;9.000;2023-09-18T08:36:29;7.73;;;1.83;;
30000;SDS011;16845;48.670;9.000;2023-09-18T08:38:56;4.22;;;1.58;;
30000;SDS011;16845;48.670;9.000;2023-09-18T08:41:23;9.97;;;1.47;;
30000;SDS011;16845;48.670;9.000;2023-09-18T08:46:16;5.90;;;1.60;;
30000;SDS011;16845;48.670;9.000;2023-09-18T08:48:45;3.85;;;2.13;;
30000;SDS011;16845;48.670;9.000;2023-09-18T08:51:12;4.90;;;2.00;;
30000;SDS011;16845;48.670;9.000;2023-09-18T08:53:39;3.22;;;1.77;;
30000;SDS011;16845;48.670;9.000;2023-09-18T08:56:06;6.43;;;2.08;;
30000;SDS011;16845;48.670;9.000;2023-09-18T08:58:34;7.57;;;2.15;;
30000;SDS011;16845;48.670;9.000;2023-09-18T09:01:03;7.82;;;1.98;;
30000;SDS011;16845;48.670;9.000;2023-09-18T09:03:30;5.82;;;2.40;;
30000;SDS011;16845;48.670;9.000;2023-09-18T09:05:57;11.47;;;2.17;;
30000;SDS011;16845;48.670;9.000;2023-09-18T09:08:24;10.73;;;2.22;;
30000;SDS011;16845;48.670;9.000;2023-09-18T09:10:51;7.73;;;2.70;;
30000;SDS011;16845;48.670;9.000;2023-09-18T09:13:17;9.13;;;2.10;;
30000;SDS011;16845;48.670;9.000;2023-09-18T09:16:04;6.45;;;2.80;;
30000;SDS011;16845;48.670;9.000;2023-09-18T09:18:30;8.85;;;2.65;;
30000;SDS011;16845;48.670;9.000;2023-09-18T09:20:59;11.50;;;2.40;;
30000;SDS011;16845;48.670;9.000;2023-09-18T09:23:27;6.43;;;2.70;;
30000;SDS011;16845;48.670;9.000;2023-09-18T09:26:11;5.60;;;2.47;;
30000;SDS011;16845;48.670;9.000;2023-09-18T09:28:38;7.50;;;2.17;;
30000;SDS011;16845;48.670;9.000;2023-09-18T09:31:05;7.53;;;2.42;;
30000;SDS011;16845;48.670;9.000;2023-09-18T09:33:32;8.57;;;3.35;;
30000;SDS011;16845;48.670;9.000;2023-09-18T09:36:00;11.60;;;4.00;;
30000;SDS011;16845;48.670;9.000;2023-09-18T09:38:31;7.43;;;2.42;;
30000;SDS011;16845;48.670;9.000;2023-09-18T09:40:59;6.32;;;2.20;;
30000;SDS011;16845;48.670;9.000;2023-09-18T09:43:27;8.35;;;1.92;;
30000;SDS011;16845;48.670;9.000;2023-09-18T09:45:56;8.15;;;2.40;;
30000;SDS011;16845;48.670;9.000;2023-09-18T09:48:23;7.50;;;2.13;;
30000;SDS011;16845;48.670;9.000;2023-09-18T09:50:50;7.28;;;2.58;;
30000;SDS011;16845;48.670;9.000;2023-09-18T09:53:18;2.50;;;1.88;;
30000;SDS011;16845;48.670;9.000;2023-09-18T09:55:45;6.47;;;2.60;;
30000;SDS011;16845;48.670;9.000;2023-09-18T09:58:11;6.38;;;2.28;;
30000;SDS011;16845;48.670;9.000;2023-09-18T10:00:39;3.17;;;1.95;;
30000;SDS011;16845;48.670;9.000;2023-09-18T10:03:09;6.93;;;2.60;;
30000;SDS011;16845;48.670;9.000;2023-09-18T10:05:37;5.72;;;2.42;;
30000;SDS011;16845;48.670;9.000;2023-09-18T10:08:06;6.38;;;2.17;;
30000;SDS011;16845;48.670;9.000;2023-09-18T10:10:36;5.28;;;2.17;;
30000;SDS011;16845;48.670;9.000;2023-09-18T10:13:09;5.90;;;2.05;;
30000;SDS011;16845;48.670;9.000;2023-09-18T10:15:37;5.13;;;2.25;;
30000;SDS011;16845;48.670;9.000;2023-09-18T10:18:05;10.38;;;1.92;;
30000;SDS011;16845;48.670;9.000;2023-09-18T10:20:37;7.80;;;2.42;;
30000;SDS011;16845;48.670;9.000;2023-09-18T10:23:05;8.48;;;2.35;;
30000;SDS011;16845;48.670;9.000;2023-09-18T10:25:33;8.23;;;1.98;;
30000;SDS011;16845;48.670;9.000;2023-09-18T10:28:00;9.75;;;2.58;;
30000;SDS011;16845;48.670;9.000;2023-09-18T10:30:29;4.70;;;2.40;;
30000;SDS011;16845;48.670;9.000;2023-09-18T10:32:58;9.13;;;2.95;;
30000;SDS011;16845;48.670;9.000;2023-09-18T10:35:25;7.45;;;2.42;;
30000;SDS011;16845;48.670;9.000;2023-09-18T10:37:53;8.30;;;2.50;;
30000;SDS011;16845;48.670;9.000;2023-09-18T10:40:20;4.63;;;2.78;;
30000;SDS011;16845;48.670;9.000;2023-09-18T10:42:47;10.15;;;2.72;;
30000;SDS011;16845;48.670;9.000;2023-09-18T10:45:17;4.60;;;2.20;;
30000;SDS011;16845;48.670;9.000;2023-09-18T10:47:44;5.55;;;2.45;;
30000;SDS011;16845;48.670;9.000;2023-09-18T10:50:22;5.45;;;2.33;;
30000;SDS011;16845;48.670;9.000;2023-09-18T10:52:49;7.53;;;2.50;;
30000;SDS011;16845;48.670;9.000;2023-09-18T10:55:15;2.95;;;1.90;;
30000;SDS011;16845;48.670;9.000;2023-09-18T10:57:49;10.65;;;2.92;;
30000;SDS011;16845;48.670;9.000;2023-09-18T11:00:17;6.53;;;2.08;;
30000;SDS011;16845;48.670;9.000;2023-09-18T11:02:44;6.45;;;2.30;;
30000;SDS011;16845;48.670;9.000;2023-09-18T11:05:12;3.17;;;1.70;;
30000;SDS011;16845;48.670;9.000;2023-09-18T11:07:39;10.00;;;1.80;;
30000;SDS011;16845;48.670;9.000;2023-09-18T11:12:52;9.98;;;2.47;;
30000;SDS011;16845;48.670;9.000;2023-09-18T11:15:26;5.47;;;2.30;;
30000;SDS011;16845;48.670;9.000;2023-09-18T11:17:58;3.95;;;1.92;;
30000;SDS011;16845;48.670;9.000;2023-09-18T11:20:25;2.88;;;2.08;;
30000;SDS011;16845;48.670;9.000;2023-09-18T11:22:55;6.28;;;2.20;;
30000;SDS011;16845;48.670;9.000;2023-09-18T11:28:13;5.33;;;1.60;;
30000;SDS011;16845;48.670;9.000;2023-09-18T11:30:49;8.07;;;1.73;;
30000;SDS011;16845;48.670;9.000;2023-09-18T11:33:23;4.45;;;1.88;;
30000;SDS011;16845;48.670;9.000;2023-09-18T11:35:56;9.23;;;1.77;;
30000;SDS011;16845;48.670;9.000;2023-09-18T11:40:50;5.85;;;1.50;;
30000;SDS011;16845;48.670;9.000;2023-09-18T11:43:18;4.22;;;1.48;;
30000;SDS011;16845;48.670;9.000;2023-09-18T11:45:50;4.28;;;1.50;;
30000;SDS011;16845;48.670;9.000;2023-09-18T11:48:18;3.47;;;1.83;;
30000;SDS011;16845;48.670;9.000;2023-09-18T11:50:47;6.47;;;2.00;;
30000;SDS011;16845;48.670;9.000;2023-09-18T11:53:14;4.70;;;1.88;;
30000;SDS011;16845;48.670;9.000;2023-09-18T11:55:41;2.92;;;1.83;;
30000;SDS011;16845;48.670;9.000;2023-09-18T11:58:08;7.20;;;2.05;;
30000;SDS011;16845;48.670;9.000;2023-09-18T12:00:35;3.10;;;1.60;;
30000;SDS011;16845;48.670;9.000;2023-09-18T12:03:14;4.73;;;1.40;;
30000;SDS011;16845;48.670;9.000;2023-09-18T12:05:41;2.33;;;1.48;;
30000;SDS011;16845;48.670;9.000;2023-09-18T12:08:08;6.37;;;1.83;;
30000;SDS011;16845;48.670;9.000;2023-09-18T12:10:34;2.50;;;1.40;;
30000;SDS011;16845;48.670;9.000;2023-09-18T12:13:01;3.28;;;1.50;;
30000;SDS011;16845;48.670;9.000;2023-09-18T12:15:32;6.75;;;1.35;;
30000;SDS011;16845;48.670;9.000;2023-09-18T12:18:04;5.13;;;1.40;;
30000;SDS011;16845;48.670;9.000;2023-09-18T12:20:32;4.45;;;1.27;;
30000;SDS011;16845;48.670;9.000;2023-09-18T12:22:59;3.75;;;1.70;;
30000;SDS011;16845;48.670;9.000;2023-09-18T12:25:26;2.97;;;1.30;;
30000;SDS011;16845;48.670;9.000;2023-09-18T12:27:53;5.18;;;1.38;;
30000;SDS011;16845;48.670;9.000;2023-09-18T12:30:20;4.65;;;1.65;;
30000;SDS011;16845;48.670;9.000;2023-09-18T12:32:48;5.65;;;1.58;;
30000;SDS011;16845;48.670;9.000;2023-09-18T12:37:43;6.82;;;1.25;;
30000;SDS011;16845;48.670;9.000;2023-09-18T12:40:20;4.70;;;1.27;;
30000;SDS011;16845;48.670;9.000;2023-09-18T12:42:47;3.05;;;1.65;;
30000;SDS011;16845;48.670;9.000;2023-09-18T12:45:14;3.95;;;1.25;;
30000;SDS011;16845;48.670;9.000;2023-09-18T12:47:41;4.53;;;1.55;;
30000;SDS011;16845;48.670;9.000;2023-09-18T12:50:08;3.22;;;1.30;;
30000;SDS011;16845;48.670;9.000;2023-09-18T12:52:38;3.03;;;1.23;;
30000;SDS011;16845;48.670;9.000;2023-09-18T12:55:07;1.87;;;1.17;;
30000;SDS011;16845;48.670;9.000;2023-09-18T12:57:34;9.82;;;2.67;;
30000;SDS011;16845;48.670;9.000;2023-09-18T13:00:07;3.47;;;1.38;;
30000;SDS011;16845;48.670;9.000;2023-09-18T13:02:34;2.30;;;1.02;;
30000;SDS011;16845;48.670;9.000;2023-09-18T13:05:01;4.97;;;1.55;;
30000;SDS011;16845;48.670;9.000;2023-09-18T13:07:28;5.15;;;1.80;;
30000;SDS011;16845;48.670;9.000;2023-09-18T13:09:58;2.75;;;1.10;;
30000;SDS011;16845;48.670;9.000;2023-09-18T13:12:26;10.00;;;1.48;;
30000;SDS011;16845;48.670;9.000;2023-09-18T13:15:05;2.53;;;1.05;;
30000;SDS011;16845;48.670;9.000;2023-09-18T13:17:36;3.17;;;1.20;;
30000;SDS011;16845;48.670;9.000;2023-09-18T13:20:06;2.38;;;1.00;;
30000;SDS011;16845;48.670;9.000;2023-09-18T13:22:35;4.85;;;1.40;;
30000;SDS011;16845;48.670;9.000;2023-09-18T13:25:02;3.72;;;1.30;;
30000;SDS011;16845;48.670;9.000;2023-09-18T13:27:30;4.35;;;1.38;;
30000;SDS011;16845;48.670;9.000;2023-09-18T13:29:56;6.70;;;1.60;;
30000;SDS011;16845;48.670;9.000;2023-09-18T13:32:23;6.43;;;1.73;;
30000;SDS011;16845;48.670;9.000;2023-09-18T13:34:49;2.50;;;1.00;;
30000;SDS011;16845;48.670;9.000;2023-09-18T13:37:16;2.90;;;1.27;;
30000;SDS011;16845;48.670;9.000;2023-09-18T13:39:42;3.03;;;1.13;;
30000;SDS011;16845;48.670;9.000;2023-09-18T13:42:09;3.35;;;1.40;;
30000;SDS011;16845;48.670;9.000;2023-09-18T13:44:37;4.18;;;1.13;;
30000;SDS011;16845;48.670;9.000;2023-09-18T13:47:04;4.95;;;1.15;;
30000;SDS011;16845;48.670;9.000;2023-09-18T13:49:30;1.83;;;0.90;;
30000;SDS011;16845;48.670;9.000;2023-09-18T13:51:57;2.63;;;1.25;;
30000;SDS011;16845;48.670;9.000;2023-09-18T13:54:23;1.93;;;1.10;;
30000;SDS011;16845;48.670;9.000;2023-09-18T13:56:50;1.65;;;0.82;;
30000;SDS011;16845;48.670;9.000;2023-09-18T13:59:16;2.55;;;0.90;;
30000;SDS011;16845;48.670;9.000;2023-09-18T14:01:44;1.00;;;0.90;;
30000;SDS011;16845;48.670;9.000;2023-09-18T14:04:11;2.40;;;1.38;;
30000;SDS011;16845;48.670;9.000;2023-09-18T14:06:37;2.80;;;1.30;;
30000;SDS011;16845;48.670;9.000;2023-09-18T14:09:04;5.00;;;1.47;;
30000;SDS011;16845;48.670;9.000;2023-09-18T14:11:32;3.55;;;1.30;;
30000;SDS011;16845;48.670;9.000;2023-09-18T14:13:59;3.30;;;1.03;;
30000;SDS011;16845;48.670;9.000;2023-09-18T14:16:25;3.15;;;1.20;;
30000;SDS011;16845;48.670;9.000;2023-09-18T14:18:53;4.97;;;1.20;;
30000;SDS011;16845;48.670;9.000;2023-09-18T14:21:20;3.55;;;1.23;;
30000;SDS011;16845;48.670;9.000;2023-09-18T14:23:46;5.33;;;1.70;;
30000;SDS011;16845;48.670;9.000;2023-09-18T14:26:13;4.70;;;2.05;;
30000;SDS011;16845;48.670;9.000;2023-09-18T14:28:46;2.40;;;1.20;;
30000;SDS011;16845;48.670;9.000;2023-09-18T14:31:12;3.55;;;1.55;;
30000;SDS011;16845;48.670;9.000;2023-09-18T14:33:39;4.33;;;1.20;;
30000;SDS011;16845;48.670;9.000;2023-09-18T14:36:07;2.93;;;1.07;;
30000;SDS011;16845;48.670;9.000;2023-09-18T14:38:33;1.38;;;1.00;;
30000;SDS011;16845;48.670;9.000;2023-09-18T14:41:00;1.73;;;1.07;;
30000;SDS011;16845;48.670;9.000;2023-09-18T14:43:26;2.83;;;1.27;;
30000;SDS011;16845;48.670;9.000;2023-09-18T14:45:53;4.07;;;1.20;;
30000;SDS011;16845;48.670;9.000;2023-09-18T14:48:19;2.43;;;0.97;;
30000;SDS011;16845;48.670;9.000;2023-09-18T14:50:46;1.50;;;1.00;;
30000;SDS011;16845;48.670;9.000;2023-09-18T14:53:20;2.22;;;1.13;;
30000;SDS011;16845;48.670;9.000;2023-09-18T14:55:46;5.90;;;1.35;;
30000;SDS011;16845;48.670;9.000;2023-09-18T14:58:13;3.17;;;1.13;;
30000;SDS011;16845;48.670;9.000;2023-09-18T15:00:40;2.35;;;0.90;;
30000;SDS011;16845;48.670;9.000;2023-09-18T15:03:06;2.30;;;1.30;;
30000;SDS011;16845;48.670;9.000;2023-09-18T15:05:33;4.85;;;1.17;;
30000;SDS011;16845;48.670;9.000;2023-09-18T15:07:59;2.63;;;1.10;;
30000;SDS011;16845;48.670;9.000;2023-09-18T15:10:27;2.05;;;1.00;;
30000;SDS011;16845;48.670;9.000;2023-09-18T15:12:54;2.00;;;1.25;;
30000;SDS011;16845;48.670;9.000;2023-09-18T15:15:20;4.05;;;1.10;;
30000;SDS011;16845;48.670;9.000;2023-09-18T15:17:46;1.13;;;0.95;;